Time;durP1;ratioP1;P1;durP2;ratioP2;P2;SDS_P1;SDS_P2;PMS_P1;PMS_P2;Temp;Humidity;BMP_temperature;BMP_pressure;BME280_temperature;BME280_humidity;BME280_pressure;Samples;Min_cycle;Max_cycle;Signal;HPM_P1;HPM_P2
2022/07/14 00:00:20;;;;;;;5.30;1.30;;;;;;;23.16;40.17;98925.80;106050;1275;22613;-82
2022/07/14 00:03:08;;;;;;;4.40;1.40;;;;;;;23.12;40.25;98927.25;106075;1274;25351;-83
2022/07/14 00:05:55;;;;;;;5.30;1.40;;;;;;;23.08;40.45;98929.98;105943;1274;24369;-86
2022/07/14 00:08:24;;;;;;;4.60;1.20;;;;;;;23.03;40.68;98929.88;106021;1274;22829;-83
2022/07/14 00:10:55;;;;;;;4.10;1.50;;;;;;;22.99;40.95;98930.25;106261;1274;24079;-83
2022/07/14 00:13:26;;;;;;;4.90;1.40;;;;;;;22.94;40.96;98931.88;106063;1274;25440;-83
2022/07/14 00:15:56;;;;;;;5.30;1.50;;;;;;;22.90;41.09;98934.52;105944;1277;22540;-86
2022/07/14 00:18:25;;;;;;;5.00;1.50;;;;;;;22.86;41.09;98935.35;106017;1274;25360;-83
2022/07/14 00:20:55;;;;;;;5.90;1.50;;;;;;;22.83;41.20;98937.04;106046;1276;25481;-82
2022/07/14 00:23:24;;;;;;;3.20;1.20;;;;;;;22.80;41.11;98936.01;105856;1275;24299;-81
2022/07/14 00:25:54;;;;;;;3.80;1.40;;;;;;;22.78;41.46;98936.98;105860;1275;25342;-81
2022/07/14 00:28:24;;;;;;;4.40;1.30;;;;;;;22.75;41.50;98935.69;105921;1274;24248;-84
2022/07/14 00:30:58;;;;;;;4.50;1.70;;;;;;;22.72;41.54;98932.23;105959;1275;22600;-85
2022/07/14 00:33:29;;;;;;;4.50;1.20;;;;;;;22.67;41.70;98932.13;106007;1274;24079;-86
2022/07/14 00:35:57;;;;;;;4.60;1.40;;;;;;;22.64;41.65;98929.03;105985;1277;22583;-82
2022/07/14 00:38:25;;;;;;;4.90;1.40;;;;;;;22.61;41.65;98923.09;105916;1276;22569;-80
2022/07/14 00:40:55;;;;;;;5.90;1.40;;;;;;;22.58;41.82;98922.02;105866;1274;26549;-81
2022/07/14 00:43:30;;;;;;;4.00;1.10;;;;;;;22.54;41.90;98919.79;106240;1275;22707;-82
2022/07/14 00:47:03;;;;;;;4.90;1.40;;;;;;;22.48;41.83;98921.30;105992;1274;24277;-84
2022/07/14 00:49:34;;;;;;;4.60;1.50;;;;;;;22.45;41.98;98920.00;105963;1274;22629;-84
2022/07/14 00:52:01;;;;;;;4.50;1.20;;;;;;;22.41;42.07;98920.54;106054;1275;25324;-81
2022/07/14 00:54:31;;;;;;;5.10;1.50;;;;;;;22.35;42.31;98916.31;106149;1274;22487;-83
2022/07/14 00:57:01;;;;;;;4.30;1.30;;;;;;;22.29;42.19;98915.91;106060;1274;22574;-82
2022/07/14 00:59:28;;;;;;;3.90;1.40;;;;;;;22.23;42.29;98914.98;106031;1275;22702;-83
2022/07/14 01:01:59;;;;;;;5.00;1.60;;;;;;;22.19;42.34;98910.98;106281;1274;25615;-82
2022/07/14 01:04:26;;;;;;;3.60;1.30;;;;;;;22.16;42.36;98911.92;106019;1275;22766;-82
2022/07/14 01:06:53;;;;;;;3.40;1.30;;;;;;;22.13;42.35;98916.52;105893;1275;24220;-87
2022/07/14 01:09:20;;;;;;;3.90;1.20;;;;;;;22.11;42.47;98918.38;105917;1274;22811;-86
2022/07/14 01:11:50;;;;;;;4.90;1.30;;;;;;;22.08;42.49;98921.09;105968;1275;25468;-80
2022/07/14 01:14:20;;;;;;;5.60;1.50;;;;;;;22.06;42.55;98917.17;106004;1276;22544;-86
2022/07/14 01:16:54;;;;;;;4.10;1.60;;;;;;;22.04;42.55;98919.59;105955;1274;22687;-83
2022/07/14 01:19:27;;;;;;;5.00;1.50;;;;;;;22.02;42.54;98919.48;105649;1274;25248;-82
2022/07/14 01:22:02;;;;;;;3.90;1.30;;;;;;;22.00;42.53;98921.39;105927;1275;24069;-82
2022/07/14 01:24:32;;;;;;;6.30;1.30;;;;;;;21.99;42.75;98921.30;105861;1276;22557;-82
2022/07/14 01:27:00;;;;;;;3.40;1.40;;;;;;;21.99;42.83;98922.80;105789;1274;23341;-85
2022/07/14 01:29:29;;;;;;;5.60;1.50;;;;;;;22.00;42.79;98925.78;105908;1274;25255;-83
2022/07/14 01:32:02;;;;;;;6.10;1.50;;;;;;;21.99;42.77;98928.41;105984;1275;24430;-83
2022/07/14 01:34:29;;;;;;;5.70;1.50;;;;;;;21.96;42.87;98927.46;105998;1274;22600;-82
2022/07/14 01:36:59;;;;;;;3.50;1.50;;;;;;;21.93;42.94;98928.20;105933;1276;25275;-83
2022/07/14 01:39:35;;;;;;;4.40;1.30;;;;;;;21.93;42.91;98929.29;105778;1274;24252;-83
2022/07/14 01:42:05;;;;;;;3.50;1.30;;;;;;;21.96;42.91;98930.40;105973;1276;22540;-86
2022/07/14 01:44:35;;;;;;;4.00;1.30;;;;;;;21.95;42.91;98936.17;105924;1276;25603;-84
2022/07/14 01:47:09;;;;;;;5.10;1.40;;;;;;;21.95;43.25;98939.19;105794;1275;25412;-83
2022/07/14 01:49:39;;;;;;;5.10;1.50;;;;;;;21.97;43.14;98937.17;105952;1275;22564;-86
2022/07/14 01:52:11;;;;;;;3.90;1.10;;;;;;;21.97;43.06;98937.02;106041;1276;25204;-85
2022/07/14 01:54:43;;;;;;;3.90;1.20;;;;;;;21.96;43.25;98945.76;106092;1274;22568;-83
2022/07/14 01:57:18;;;;;;;3.80;1.40;;;;;;;21.94;43.30;98946.41;105993;1276;22533;-85
2022/07/14 01:59:48;;;;;;;3.40;1.30;;;;;;;21.95;43.27;98950.13;106086;1274;22718;-87
2022/07/14 02:02:16;;;;;;;5.20;1.60;;;;;;;21.96;43.25;98953.40;105924;1274;22530;-85
2022/07/14 02:04:47;;;;;;;3.90;1.40;;;;;;;21.95;43.32;98956.01;106034;1274;22624;-86
2022/07/14 02:07:17;;;;;;;4.90;1.40;;;;;;;21.95;43.31;98957.05;106016;1274;23810;-82
2022/07/14 02:12:41;;;;;;;5.10;1.60;;;;;;;21.88;43.50;98961.64;106010;1274;22808;-85
2022/07/14 02:15:20;;;;;;;5.30;1.70;;;;;;;21.83;43.51;98965.08;106003;1274;25214;-86
2022/07/14 02:17:54;;;;;;;3.90;1.50;;;;;;;21.80;43.53;98957.15;106047;1275;23926;-83
2022/07/14 02:20:25;;;;;;;4.20;1.60;;;;;;;21.73;43.57;98957.33;106054;1274;22580;-83
2022/07/14 02:22:59;;;;;;;4.80;1.70;;;;;;;21.65;43.59;98964.36;106013;1274;22562;-85
2022/07/14 02:25:35;;;;;;;6.10;1.70;;;;;;;21.55;43.76;98970.16;105881;1276;23037;-82
2022/07/14 02:28:03;;;;;;;6.30;1.80;;;;;;;21.43;43.77;98972.62;106008;1275;22538;-85
2022/07/14 02:30:33;;;;;;;9.90;1.70;;;;;;;21.33;43.86;98972.73;105953;1274;23497;-81
2022/07/14 02:33:06;;;;;;;5.20;1.70;;;;;;;21.24;44.04;98979.40;106121;1274;24260;-82
2022/07/14 02:35:44;;;;;;;7.60;1.60;;;;;;;21.12;43.99;98985.55;105956;1274;23812;-82
2022/07/14 02:38:14;;;;;;;4.40;1.60;;;;;;;20.99;44.11;98996.08;106026;1275;24281;-84
2022/07/14 02:40:57;;;;;;;6.60;1.60;;;;;;;20.89;44.10;98995.22;106284;1274;22706;-85
2022/07/14 02:43:39;;;;;;;4.60;1.70;;;;;;;20.80;44.24;98996.45;106032;1274;22655;-83
2022/07/14 02:46:12;;;;;;;5.70;1.80;;;;;;;20.71;44.39;98999.64;105827;1281;24539;-85
2022/07/14 02:48:48;;;;;;;7.40;1.90;;;;;;;20.64;44.49;99002.53;105960;1274;23171;-81
2022/07/14 02:51:24;;;;;;;6.20;1.60;;;;;;;20.58;44.67;99000.19;105932;1274;22547;-83
2022/07/14 02:58:40;;;;;;;5.40;1.80;;;;;;;20.42;44.76;99005.94;105755;1279;22598;-84
2022/07/14 03:01:16;;;;;;;6.00;2.10;;;;;;;20.39;44.95;99006.56;105582;1279;22642;-84
2022/07/14 03:04:34;;;;;;;7.50;1.90;;;;;;;20.37;45.09;99007.35;105720;1279;22854;-84
2022/07/14 03:10:28;;;;;;;7.40;1.90;;;;;;;20.29;45.31;99011.00;105709;1279;25306;-83
2022/07/14 03:17:27;;;;;;;5.20;2.00;;;;;;;20.18;45.49;99017.51;105657;1279;24917;-84
2022/07/14 03:20:22;;;;;;;5.90;1.90;;;;;;;20.11;45.68;99017.91;105787;1279;24278;-83
2022/07/14 03:23:15;;;;;;;7.30;1.80;;;;;;;20.06;45.99;99022.80;105763;1279;23201;-83
2022/07/14 03:26:29;;;;;;;7.90;1.70;;;;;;;19.99;46.02;99023.55;105632;1279;22557;-83
2022/07/14 03:29:27;;;;;;;8.30;2.00;;;;;;;19.94;46.27;99024.01;105185;1285;25704;-83
2022/07/14 03:32:15;;;;;;;;;;;;;;;;;;;;;
2022/07/14 03:39:00;;;;;;;6.80;2.00;;;;;;;19.96;46.47;99028.27;105421;1282;22559;-83
2022/07/14 03:41:43;;;;;;;3.80;1.70;;;;;;;20.00;46.60;99031.59;105539;1281;22636;-84
2022/07/14 03:48:32;;;;;;;5.90;2.00;;;;;;;20.00;46.88;99036.44;105034;1287;22724;-82
2022/07/14 03:51:18;;;;;;;6.10;2.10;;;;;;;19.97;47.14;99035.73;105194;1287;22565;-84
2022/07/14 03:54:06;;;;;;;7.50;1.90;;;;;;;19.95;47.29;99041.02;104509;1291;22656;-83
2022/07/14 03:56:33;;;;;;;6.40;2.30;;;;;;;19.97;47.30;99044.54;104451;1291;25489;-82
2022/07/14 03:59:09;;;;;;;7.30;2.30;;;;;;;20.02;47.39;99051.67;104233;1294;23031;-84
2022/07/14 04:01:42;;;;;;;7.90;2.40;;;;;;;20.09;47.56;99056.08;104375;1291;22849;-82
2022/07/14 04:04:18;;;;;;;6.30;1.90;;;;;;;20.16;47.58;99055.80;104243;1294;24592;-83
2022/07/14 04:06:48;;;;;;;8.80;2.10;;;;;;;20.27;47.88;99052.42;104775;1287;25325;-83
2022/07/14 04:09:22;;;;;;;9.40;2.40;;;;;;;20.40;48.17;99049.86;105121;1287;22859;-85
2022/07/14 04:12:15;;;;;;;12.50;2.80;;;;;;;20.52;48.29;99056.30;105046;1287;25386;-81
2022/07/14 04:14:46;;;;;;;11.80;2.60;;;;;;;20.63;48.23;99057.48;105000;1287;22572;-83
2022/07/14 04:17:14;;;;;;;10.80;3.10;;;;;;;20.73;48.40;99059.00;105027;1288;24472;-86
2022/07/14 04:19:48;;;;;;;6.90;2.30;;;;;;;20.80;48.38;99051.68;104960;1287;22595;-82
2022/07/14 04:22:15;;;;;;;8.80;2.50;;;;;;;20.86;48.70;99055.39;104932;1287;25238;-86
2022/07/14 04:24:46;;;;;;;7.20;2.40;;;;;;;20.88;48.65;99057.27;105306;1284;25315;-84
2022/07/14 04:27:21;;;;;;;7.80;2.40;;;;;;;20.92;48.80;99053.16;105507;1281;22840;-84
2022/07/14 04:30:38;;;;;;;12.90;2.90;;;;;;;20.97;48.89;99065.92;105565;1282;25369;-82
2022/07/14 04:33:09;;;;;;;6.80;2.30;;;;;;;21.02;48.93;99070.08;105652;1278;25459;-84
2022/07/14 04:39:20;;;;;;;10.00;2.70;;;;;;;21.22;49.20;99066.72;105755;1277;22675;-82
2022/07/14 04:41:52;;;;;;;8.60;2.40;;;;;;;21.32;49.18;99067.16;105807;1278;25376;-83
2022/07/14 04:44:24;;;;;;;9.10;2.60;;;;;;;21.42;48.86;99068.40;105481;1278;22553;-83
2022/07/14 04:46:57;;;;;;;10.20;2.30;;;;;;;21.52;48.87;99067.25;105720;1278;25308;-84
2022/07/14 04:52:45;;;;;;;;;;;;;;;;;;;;;
2022/07/14 04:56:04;;;;;;;7.90;2.40;;;;;;;21.74;49.17;99059.34;105732;1279;25393;-82
2022/07/14 04:58:59;;;;;;;9.30;2.60;;;;;;;21.84;49.29;99059.98;105619;1278;23111;-87
2022/07/14 05:01:29;;;;;;;8.10;2.40;;;;;;;21.87;49.27;99068.30;105905;1273;22531;-84
2022/07/14 05:03:58;;;;;;;13.30;2.40;;;;;;;21.88;49.33;99070.57;106035;1273;22582;-84
2022/07/14 05:06:55;;;;;;;8.30;2.50;;;;;;;21.90;49.38;99070.32;105944;1274;22588;-86
2022/07/14 05:09:25;;;;;;;9.90;2.20;;;;;;;21.97;49.61;99064.09;106096;1273;25247;-84
2022/07/14 05:12:00;;;;;;;8.40;2.00;;;;;;;22.02;49.53;99064.89;105962;1273;24222;-83
2022/07/14 05:14:36;;;;;;;5.90;2.20;;;;;;;22.06;49.57;99065.24;105910;1273;22535;-82
2022/07/14 05:17:20;;;;;;;7.20;2.40;;;;;;;22.11;49.57;99068.91;105933;1273;23948;-82
2022/07/14 05:20:11;;;;;;;10.40;2.50;;;;;;;22.11;49.18;99071.66;106125;1273;24240;-85
2022/07/14 05:22:43;;;;;;;9.40;2.30;;;;;;;22.00;49.21;99068.90;106307;1273;25497;-86
2022/07/14 05:25:17;;;;;;;6.50;2.30;;;;;;;21.98;49.56;99065.91;106086;1274;25532;-84
2022/07/14 05:27:49;;;;;;;9.30;2.50;;;;;;;22.07;49.61;99065.73;106037;1273;22556;-84
2022/07/14 05:30:42;;;;;;;9.20;2.50;;;;;;;22.20;49.37;99065.59;106109;1273;25386;-83
2022/07/14 05:33:10;;;;;;;7.30;2.30;;;;;;;22.27;49.38;99065.11;105809;1273;22783;-84
2022/07/14 05:35:42;;;;;;;9.30;2.50;;;;;;;22.46;49.40;99061.45;105939;1274;22578;-83
2022/07/14 05:38:09;;;;;;;8.40;2.00;;;;;;;22.68;49.11;99064.10;106010;1273;22738;-86
2022/07/14 05:40:39;;;;;;;10.30;2.50;;;;;;;22.83;49.05;99063.19;105973;1273;22542;-85
2022/07/14 05:43:11;;;;;;;8.70;3.00;;;;;;;22.92;48.78;99059.93;105905;1274;23943;-84
2022/07/14 05:45:40;;;;;;;8.30;2.50;;;;;;;22.96;48.68;99060.18;106070;1273;24206;-84
2022/07/14 05:48:08;;;;;;;13.60;2.80;;;;;;;22.98;49.09;99063.91;106115;1273;22708;-85
2022/07/14 05:50:35;;;;;;;15.20;2.70;;;;;;;23.09;48.97;99064.91;105802;1273;24284;-85
2022/07/14 05:53:04;;;;;;;8.00;2.50;;;;;;;23.14;48.96;99062.50;106158;1273;22539;-85
2022/07/14 05:55:34;;;;;;;9.80;2.70;;;;;;;23.16;48.79;99058.89;105945;1273;25316;-82
2022/07/14 05:58:05;;;;;;;8.90;2.60;;;;;;;23.25;48.93;99055.85;106139;1273;22777;-86
2022/07/14 06:00:36;;;;;;;10.10;2.50;;;;;;;23.44;49.37;99054.01;106305;1273;22624;-83
2022/07/14 06:03:09;;;;;;;6.60;2.40;;;;;;;23.64;49.08;99052.98;105972;1273;22534;-85
2022/07/14 06:05:36;;;;;;;8.00;2.80;;;;;;;23.76;48.98;99057.94;105699;1273;24418;-81
2022/07/14 06:08:07;;;;;;;9.30;2.70;;;;;;;23.87;48.71;99052.50;105968;1273;22766;-85
2022/07/14 06:10:40;;;;;;;10.10;2.60;;;;;;;24.05;48.64;99051.52;105985;1274;23224;-84
2022/07/14 06:13:09;;;;;;;7.50;2.40;;;;;;;24.13;48.24;99053.90;106008;1273;25484;-84
2022/07/14 06:15:45;;;;;;;8.40;2.90;;;;;;;24.22;48.26;99058.95;106054;1273;22603;-85
2022/07/14 06:18:15;;;;;;;5.50;2.40;;;;;;;24.29;48.60;99062.26;106058;1273;25384;-82
2022/07/14 06:20:48;;;;;;;10.70;2.90;;;;;;;24.24;48.26;99055.38;106289;1273;25247;-86
2022/07/14 06:23:17;;;;;;;11.70;3.00;;;;;;;24.14;48.76;99049.41;106062;1274;23171;-85
2022/07/14 06:25:49;;;;;;;7.60;2.30;;;;;;;24.14;48.49;99050.46;105860;1273;23914;-83
2022/07/14 06:28:26;;;;;;;4.90;2.30;;;;;;;24.14;48.58;99052.31;106059;1273;22697;-84
2022/07/14 06:31:07;;;;;;;5.40;2.00;;;;;;;24.15;48.13;99051.81;105944;1273;25321;-86
2022/07/14 06:33:40;;;;;;;6.90;2.70;;;;;;;24.25;48.32;99050.94;106091;1275;22615;-86
2022/07/14 06:36:27;;;;;;;8.30;3.50;;;;;;;24.32;48.35;99052.58;105860;1275;22663;-84
2022/07/14 06:38:59;;;;;;;11.90;3.30;;;;;;;24.38;48.24;99054.20;105853;1274;22800;-87
2022/07/14 06:41:33;;;;;;;17.00;3.80;;;;;;;24.44;48.59;99051.55;105990;1274;22569;-84
2022/07/14 06:44:06;;;;;;;8.60;2.70;;;;;;;24.62;48.42;99052.30;106010;1275;24376;-86
2022/07/14 06:46:38;;;;;;;6.40;2.90;;;;;;;24.53;47.93;99055.35;105941;1275;22553;-83
2022/07/14 06:49:05;;;;;;;9.60;3.90;;;;;;;24.35;48.11;99056.52;106070;1274;25462;-81
2022/07/14 06:51:32;;;;;;;9.50;3.10;;;;;;;24.26;48.31;99056.23;106119;1274;22579;-85
2022/07/14 06:54:07;;;;;;;8.00;3.00;;;;;;;24.33;48.31;99061.54;106022;1275;22802;-87
2022/07/14 06:56:39;;;;;;;7.60;2.80;;;;;;;24.55;48.54;99063.77;105958;1274;22635;-83
2022/07/14 06:59:13;;;;;;;7.40;2.30;;;;;;;24.82;48.17;99063.39;106036;1275;22576;-85
2022/07/14 07:01:53;;;;;;;7.20;2.30;;;;;;;25.06;48.14;99061.41;106004;1274;22561;-83
2022/07/14 07:04:23;;;;;;;9.00;2.50;;;;;;;25.44;48.47;99058.35;106167;1274;22621;-82
2022/07/14 07:07:03;;;;;;;6.30;2.60;;;;;;;25.63;48.12;99055.47;105958;1275;25247;-81
2022/07/14 07:09:46;;;;;;;6.40;2.60;;;;;;;25.53;47.97;99048.96;106280;1273;24416;-85
2022/07/14 07:12:25;;;;;;;7.50;3.00;;;;;;;25.40;47.94;99054.50;106048;1274;22538;-85
2022/07/14 07:15:16;;;;;;;7.50;2.80;;;;;;;25.45;48.02;99049.52;106042;1274;25239;-83
2022/07/14 07:18:16;;;;;;;8.30;2.70;;;;;;;25.76;47.90;99046.35;106098;1275;24273;-83
2022/07/14 07:21:18;;;;;;;8.50;3.00;;;;;;;25.69;47.65;99047.11;106033;1274;23034;-85
2022/07/14 07:24:01;;;;;;;8.30;2.60;;;;;;;25.60;48.13;99047.64;105965;1274;22620;-84
2022/07/14 07:26:36;;;;;;;6.20;2.80;;;;;;;25.90;48.20;99047.80;105966;1274;22626;-83
2022/07/14 07:29:05;;;;;;;7.50;3.10;;;;;;;26.17;47.91;99042.08;106070;1274;24237;-84
2022/07/14 07:31:33;;;;;;;6.80;2.80;;;;;;;26.53;47.92;99032.90;106021;1274;25549;-83
2022/07/14 07:34:01;;;;;;;8.30;2.50;;;;;;;26.75;47.61;99034.92;105863;1274;22531;-84
2022/07/14 07:36:32;;;;;;;7.70;2.60;;;;;;;26.59;47.19;99040.79;106105;1274;22538;-81
2022/07/14 07:38:59;;;;;;;6.50;2.80;;;;;;;26.37;47.62;99046.74;105879;1274;22537;-81
2022/07/14 07:41:26;;;;;;;7.30;2.90;;;;;;;26.39;47.74;99055.27;105843;1274;26762;-82
2022/07/14 07:43:54;;;;;;;6.50;2.60;;;;;;;26.23;47.26;99053.73;106133;1275;22561;-83
2022/07/14 07:46:26;;;;;;;5.30;2.40;;;;;;;25.92;47.13;99051.71;106135;1275;22699;-83
2022/07/14 07:49:00;;;;;;;8.00;2.70;;;;;;;25.77;47.51;99052.70;106237;1275;22615;-83
2022/07/14 07:51:28;;;;;;;7.90;2.60;;;;;;;25.57;47.52;99049.98;106015;1275;22646;-83
2022/07/14 07:53:59;;;;;;;6.80;3.10;;;;;;;25.51;47.64;99049.23;106038;1275;24394;-83
2022/07/14 07:56:26;;;;;;;6.00;2.90;;;;;;;25.40;47.57;99045.41;106064;1274;25495;-86
2022/07/14 07:58:56;;;;;;;5.50;2.50;;;;;;;25.25;47.54;99045.39;105843;1275;22523;-84
2022/07/14 08:01:24;;;;;;;7.80;3.00;;;;;;;25.18;47.51;99039.08;106123;1274;22608;-82
2022/07/14 08:03:54;;;;;;;8.70;3.00;;;;;;;25.29;47.55;99037.17;105897;1275;25605;-82
2022/07/14 08:06:21;;;;;;;6.60;2.90;;;;;;;25.56;48.12;99036.45;105922;1274;22699;-85
2022/07/14 08:08:48;;;;;;;6.00;2.60;;;;;;;26.06;48.17;99028.72;106121;1274;22586;-82
2022/07/14 08:11:18;;;;;;;7.80;2.80;;;;;;;26.19;47.25;99029.18;106156;1273;22556;-86
2022/07/14 08:13:48;;;;;;;8.80;2.80;;;;;;;26.10;47.10;99026.20;106223;1274;25533;-83
2022/07/14 08:16:18;;;;;;;7.00;2.80;;;;;;;26.27;47.21;99027.36;106222;1274;22714;-83
2022/07/14 08:18:52;;;;;;;6.00;3.00;;;;;;;26.52;47.15;99017.38;106020;1273;22545;-84
2022/07/14 08:21:20;;;;;;;6.60;3.00;;;;;;;26.74;46.98;99020.98;106264;1273;22808;-84
2022/07/14 08:23:47;;;;;;;6.10;2.60;;;;;;;26.88;46.83;99018.27;106257;1273;22714;-84
2022/07/14 08:26:14;;;;;;;10.30;2.90;;;;;;;27.01;46.55;99019.15;106167;1274;22583;-83
2022/07/14 08:28:41;;;;;;;8.70;2.90;;;;;;;27.14;47.21;99014.77;106143;1274;22591;-84
2022/07/14 08:31:11;;;;;;;7.60;3.10;;;;;;;27.23;46.86;99017.39;106197;1274;26688;-85
2022/07/14 08:33:42;;;;;;;9.10;3.30;;;;;;;26.96;46.34;99009.42;106036;1273;26545;-83
2022/07/14 08:36:12;;;;;;;8.50;3.00;;;;;;;26.84;46.73;99008.17;105876;1276;22661;-82
2022/07/14 08:38:39;;;;;;;8.80;3.00;;;;;;;26.78;46.66;99009.16;106134;1273;24116;-85
2022/07/14 08:41:10;;;;;;;10.00;3.10;;;;;;;26.80;46.94;99006.88;106167;1273;22609;-84
2022/07/14 08:43:40;;;;;;;7.70;3.00;;;;;;;26.96;46.69;99002.34;106082;1275;24285;-83
2022/07/14 08:46:11;;;;;;;6.40;2.90;;;;;;;27.04;46.73;99000.98;106154;1275;23320;-82
2022/07/14 08:48:45;;;;;;;7.30;2.80;;;;;;;27.28;47.03;99000.19;106125;1276;26489;-83
2022/07/14 08:51:17;;;;;;;8.40;2.70;;;;;;;27.50;46.92;99004.04;105997;1273;24215;-84
2022/07/14 08:53:49;;;;;;;6.30;3.00;;;;;;;27.45;46.36;98998.06;106175;1273;23133;-82
2022/07/14 08:56:16;;;;;;;7.10;2.90;;;;;;;27.41;46.95;98998.59;106275;1273;22563;-85
2022/07/14 08:58:46;;;;;;;9.50;3.30;;;;;;;27.46;46.96;98995.31;106077;1274;23550;-81
2022/07/14 09:01:28;;;;;;;6.50;2.90;;;;;;;27.55;46.95;98996.83;106260;1273;24310;-84
2022/07/14 09:04:05;;;;;;;8.40;2.90;;;;;;;27.72;46.59;98987.77;106197;1274;22534;-82
2022/07/14 09:06:49;;;;;;;8.90;3.10;;;;;;;27.98;46.91;98988.40;106146;1274;22544;-82
2022/07/14 09:09:19;;;;;;;7.80;3.00;;;;;;;28.37;46.42;98987.94;106380;1274;22535;-82
2022/07/14 09:12:05;;;;;;;7.80;2.90;;;;;;;28.38;45.78;98987.89;106341;1274;25310;-83
2022/07/14 09:17:26;;;;;;;6.20;3.00;;;;;;;27.98;45.89;98982.33;106236;1274;27620;-84
2022/07/14 09:20:13;;;;;;;10.80;3.00;;;;;;;28.19;46.46;98975.00;106181;1275;25222;-83
2022/07/14 09:22:47;;;;;;;13.30;3.20;;;;;;;28.44;46.61;98973.26;106031;1274;25238;-84
2022/07/14 09:25:18;;;;;;;8.60;2.60;;;;;;;28.35;46.03;98972.66;106334;1274;24284;-85
2022/07/14 09:27:48;;;;;;;7.90;2.80;;;;;;;28.09;45.55;98973.23;106117;1276;25453;-81
2022/07/14 09:30:18;;;;;;;10.20;3.00;;;;;;;27.79;45.56;98970.29;106032;1274;22764;-83
2022/07/14 09:33:05;;;;;;;11.30;2.70;;;;;;;27.58;45.95;98972.36;106100;1274;24256;-83
2022/07/14 09:35:38;;;;;;;9.50;3.00;;;;;;;27.49;45.97;98972.77;106114;1276;24269;-81
2022/07/14 09:38:22;;;;;;;9.40;2.90;;;;;;;27.33;46.21;98972.13;105957;1274;22825;-84
2022/07/14 09:41:08;;;;;;;15.20;3.40;;;;;;;27.30;46.31;98969.56;105912;1275;22528;-84
2022/07/14 09:44:09;;;;;;;7.80;2.80;;;;;;;27.16;45.74;98971.50;106088;1274;22739;-82
2022/07/14 09:46:43;;;;;;;8.40;2.60;;;;;;;27.01;45.55;98972.91;106235;1275;25237;-82
2022/07/14 09:49:37;;;;;;;5.50;2.50;;;;;;;26.85;45.88;98969.43;106129;1274;22492;-85
2022/07/14 09:52:18;;;;;;;5.90;2.70;;;;;;;26.80;46.14;98964.27;106328;1274;24283;-83
2022/07/14 09:54:50;;;;;;;6.90;2.90;;;;;;;26.75;46.07;98966.27;106111;1274;25536;-83
2022/07/14 09:57:17;;;;;;;8.00;3.20;;;;;;;26.79;46.04;98966.76;106089;1274;25446;-84
2022/07/14 10:00:11;;;;;;;8.50;3.10;;;;;;;27.03;46.26;98961.94;106188;1274;24325;-83
2022/07/14 10:02:43;;;;;;;6.60;2.90;;;;;;;27.22;45.74;98960.50;106155;1274;25428;-82
2022/07/14 10:05:14;;;;;;;9.90;2.60;;;;;;;27.35;45.80;98961.56;106014;1274;22721;-82
2022/07/14 10:07:44;;;;;;;8.10;3.60;;;;;;;27.33;45.61;98959.75;106129;1275;25290;-83
2022/07/14 10:10:15;;;;;;;12.80;3.80;;;;;;;27.16;45.21;98957.67;106035;1275;26481;-81
2022/07/14 10:12:48;;;;;;;7.30;3.40;;;;;;;26.97;45.61;98959.97;106100;1274;23915;-83
2022/07/14 10:15:18;;;;;;;6.80;3.30;;;;;;;26.89;45.79;98961.16;106076;1275;22540;-82
2022/07/14 10:18:01;;;;;;;8.20;3.80;;;;;;;26.80;45.59;98966.68;106204;1274;22564;-83
2022/07/14 10:20:38;;;;;;;8.00;3.40;;;;;;;26.69;46.11;98966.67;105990;1275;22590;-83
2022/07/14 10:23:06;;;;;;;7.90;3.00;;;;;;;26.73;46.15;98966.70;106215;1274;22566;-84
2022/07/14 10:25:38;;;;;;;11.60;3.50;;;;;;;26.63;46.00;98974.48;106012;1273;25267;-82
2022/07/14 10:28:16;;;;;;;8.40;3.50;;;;;;;26.47;46.29;98973.54;106161;1274;26511;-83
2022/07/14 10:31:07;;;;;;;9.80;3.40;;;;;;;26.53;46.17;98963.65;106134;1274;26859;-84
2022/07/14 10:34:01;;;;;;;8.10;3.30;;;;;;;26.67;46.21;98957.50;106251;1274;26566;-82
2022/07/14 10:36:52;;;;;;;7.10;3.00;;;;;;;26.87;46.26;98957.07;106174;1274;23519;-83
2022/07/14 10:39:43;;;;;;;7.50;3.10;;;;;;;26.94;45.70;98960.07;106134;1274;25582;-84
2022/07/14 10:43:18;;;;;;;7.30;2.90;;;;;;;26.89;45.67;98957.65;106162;1274;22553;-83
2022/07/14 10:46:00;;;;;;;6.50;3.00;;;;;;;26.77;45.97;98956.44;105992;1274;22603;-83
2022/07/14 10:48:36;;;;;;;13.10;3.70;;;;;;;26.99;46.26;98952.98;106107;1274;23458;-82
2022/07/14 10:51:25;;;;;;;8.20;3.20;;;;;;;27.20;45.93;98953.26;106012;1278;22633;-87
2022/07/14 10:54:23;;;;;;;10.00;3.60;;;;;;;27.25;45.81;98946.31;106014;1275;26666;-83
2022/07/14 10:57:08;;;;;;;8.30;3.70;;;;;;;27.38;45.72;98943.86;106038;1274;22687;-85
2022/07/14 10:59:49;;;;;;;7.90;3.50;;;;;;;27.36;45.55;98940.88;106025;1274;24378;-84
2022/07/14 11:02:32;;;;;;;9.00;3.20;;;;;;;27.25;45.53;98935.94;105885;1275;22567;-82
2022/07/14 11:05:36;;;;;;;8.50;3.30;;;;;;;27.04;45.55;98933.47;106095;1274;22562;-86
2022/07/14 11:08:15;;;;;;;7.30;3.40;;;;;;;26.78;45.52;98927.19;106156;1274;23978;-83
2022/07/14 11:11:08;;;;;;;9.00;3.70;;;;;;;26.59;45.89;98921.23;106175;1274;24248;-84
2022/07/14 11:14:23;;;;;;;8.90;3.90;;;;;;;26.72;46.28;98914.58;106115;1274;22607;-84
2022/07/14 11:17:31;;;;;;;11.40;3.60;;;;;;;26.88;45.86;98914.75;106000;1275;24205;-84
2022/07/14 11:20:09;;;;;;;8.20;3.70;;;;;;;27.00;45.51;98919.02;106303;1274;25383;-83
2022/07/14 11:23:01;;;;;;;7.20;3.60;;;;;;;27.06;45.81;98920.06;106091;1275;25275;-84
2022/07/14 11:25:28;;;;;;;8.10;3.80;;;;;;;27.13;45.79;98920.27;103681;1274;3551086;-84
2022/07/14 11:28:17;;;;;;;;;;;;;;;;;;;;;
2022/07/14 11:31:30;;;;;;;7.10;3.50;;;;;;;27.27;45.96;98898.77;106149;1273;24205;-85
2022/07/14 11:37:31;;;;;;;8.10;4.30;;;;;;;27.39;46.00;98898.25;106052;1274;22551;-85
2022/07/14 11:40:53;;;;;;;8.00;3.60;;;;;;;27.30;45.37;98905.91;106171;1274;25407;-83
2022/07/14 11:43:54;;;;;;;8.30;4.60;;;;;;;27.07;45.65;98908.67;105864;1279;25323;-84
2022/07/14 11:46:32;;;;;;;8.70;4.10;;;;;;;27.26;45.89;98911.34;105762;1279;22635;-85
2022/07/14 11:49:04;;;;;;;8.40;4.10;;;;;;;27.28;45.39;98910.30;105801;1279;25492;-87
2022/07/14 11:51:41;;;;;;;9.20;4.10;;;;;;;27.35;45.83;98904.73;105807;1279;22709;-85
2022/07/14 11:54:21;;;;;;;9.70;4.10;;;;;;;27.48;45.60;98906.06;105801;1278;22546;-86
2022/07/14 11:57:02;;;;;;;6.90;3.90;;;;;;;27.59;45.69;98901.05;105801;1277;22671;-84
2022/07/14 11:59:33;;;;;;;8.00;4.00;;;;;;;27.66;45.28;98901.95;105832;1279;25582;-83
2022/07/14 12:02:21;;;;;;;11.00;4.20;;;;;;;27.64;45.20;98904.63;105777;1279;22534;-84
2022/07/14 12:05:02;;;;;;;10.50;3.90;;;;;;;27.63;45.54;98896.78;105884;1279;22539;-84
2022/07/14 12:07:56;;;;;;;7.10;4.20;;;;;;;27.65;45.77;98891.87;105928;1279;22692;-84
2022/07/14 12:10:48;;;;;;;10.80;4.60;;;;;;;27.61;45.43;98888.95;105888;1279;23218;-83
2022/07/14 12:13:21;;;;;;;9.40;4.80;;;;;;;27.48;45.40;98888.84;105898;1279;22566;-84
2022/07/14 12:15:53;;;;;;;8.20;4.30;;;;;;;27.70;45.53;98886.14;105920;1278;26014;-83
2022/07/14 12:18:28;;;;;;;7.50;3.90;;;;;;;28.00;45.34;98885.01;105630;1276;22584;-84
2022/07/14 12:20:59;;;;;;;8.90;3.60;;;;;;;28.16;44.91;98885.48;106018;1276;22657;-82
2022/07/14 12:23:29;;;;;;;7.70;3.90;;;;;;;28.11;44.93;98876.88;105964;1275;23455;-83
2022/07/14 12:26:03;;;;;;;8.00;3.80;;;;;;;28.25;45.45;98873.10;105952;1276;22544;-81
2022/07/14 12:28:50;;;;;;;7.60;4.10;;;;;;;28.47;44.94;98880.37;106166;1274;22541;-85
2022/07/14 12:31:28;;;;;;;7.60;4.30;;;;;;;28.49;44.73;98875.02;106219;1274;24339;-83
2022/07/14 12:34:01;;;;;;;8.50;4.30;;;;;;;28.34;45.08;98874.31;106115;1274;22564;-83
2022/07/14 12:36:31;;;;;;;7.30;3.60;;;;;;;28.26;45.35;98872.86;106004;1275;22538;-85
2022/07/14 12:39:02;;;;;;;7.50;3.20;;;;;;;28.30;44.97;98866.58;106072;1275;25319;-86
2022/07/14 12:41:33;;;;;;;7.60;3.80;;;;;;;28.01;44.38;98864.56;106203;1275;22532;-87
2022/07/14 12:44:29;;;;;;;9.10;4.20;;;;;;;27.50;44.56;98866.59;106546;1275;22532;-81
2022/07/14 12:47:15;;;;;;;8.80;4.50;;;;;;;27.58;45.04;98868.56;105989;1279;22717;-84
2022/07/14 12:49:53;;;;;;;11.40;4.30;;;;;;;27.47;44.43;98864.71;105481;1279;23974;-86